createdAt,value
2019-05-10T00:00:19.115Z,100513.25
2019-05-10T00:03:07.630Z,100516.23
2019-05-10T00:05:56.096Z,100511.41
2019-05-10T00:08:44.352Z,100517.48
2019-05-10T00:11:30.890Z,100520.08
2019-05-10T00:14:06.983Z,100512.22
2019-05-10T00:16:37.601Z,100517.87
2019-05-10T00:19:08.059Z,100518.72
2019-05-10T00:21:39.816Z,100521.28
2019-05-10T00:24:10.646Z,100517.78
2019-05-10T00:26:41.490Z,100523.86
2019-05-10T00:29:11.926Z,100535.59
2019-05-10T00:31:42.716Z,100525.98
2019-05-10T00:34:15.500Z,100528.13
2019-05-10T00:36:47.201Z,100533.74
2019-05-10T00:39:19.462Z,100516.30
2019-05-10T00:41:50.263Z,100518.89
2019-05-10T00:44:20.474Z,100512.83
2019-05-10T00:46:52.828Z,100513.69
2019-05-10T00:49:23.110Z,100518.45
2019-05-10T00:51:54.183Z,100518.01
2019-05-10T00:54:26.246Z,100511.91
2019-05-10T00:56:57.458Z,100511.89
2019-05-10T00:59:27.826Z,100510.14
2019-05-10T01:01:59.985Z,100511.86
2019-05-10T01:04:31.435Z,100509.69
2019-05-10T01:07:01.695Z,100519.23
2019-05-10T01:09:34.068Z,100516.61
2019-05-10T01:12:04.378Z,100511.47
2019-05-10T01:14:34.674Z,100513.69
2019-05-10T01:17:05.853Z,100511.03
2019-05-10T01:19:36.965Z,100514.84
2019-05-10T01:22:07.275Z,100519.98
2019-05-10T01:24:37.613Z,100524.31
2019-05-10T01:27:08.401Z,100528.66
2019-05-10T01:29:38.735Z,100524.33
2019-05-10T01:32:12.405Z,100523.39
2019-05-10T01:34:42.752Z,100519.87
2019-05-10T01:37:14.484Z,100525.06
2019-05-10T01:39:46.450Z,100523.30
2019-05-10T01:42:16.862Z,100520.13
2019-05-10T01:44:48.733Z,100518.43
2019-05-10T01:47:19.042Z,100520.55
2019-05-10T01:49:49.479Z,100521.80
2019-05-10T01:52:19.893Z,100522.19
2019-05-10T01:54:50.540Z,100523.05
2019-05-10T01:57:20.950Z,100529.11
2019-05-10T01:59:51.766Z,100533.44
2019-05-10T02:02:22.113Z,100529.91
2019-05-10T02:04:54.797Z,100525.53
2019-05-10T02:07:25.101Z,100525.07
2019-05-10T02:09:55.703Z,100529.69
2019-05-10T02:12:26.072Z,100529.22
2019-05-10T02:14:57.874Z,100526.75
2019-05-10T02:17:28.188Z,100525.64
2019-05-10T02:19:59.552Z,100528.53
2019-05-10T02:22:30.015Z,100524.16
2019-05-10T02:25:01.177Z,100526.16
2019-05-10T02:27:31.496Z,100523.05
2019-05-10T02:30:02.229Z,100526.88
2019-05-10T02:32:32.553Z,100529.88
2019-05-10T02:35:06.989Z,100530.73
2019-05-10T02:37:39.323Z,100526.65
2019-05-10T02:40:10.798Z,100523.92
2019-05-10T02:42:41.114Z,100522.78
2019-05-10T02:45:13.866Z,100526.84
2019-05-10T02:47:44.184Z,100530.45
2019-05-10T02:50:14.529Z,100531.99
2019-05-10T02:52:44.841Z,100528.78
2019-05-10T02:55:16.739Z,100527.12
2019-05-10T02:57:47.689Z,100517.75
2019-05-10T03:00:18.575Z,100523.91
2019-05-10T03:02:50.222Z,100519.09
2019-05-10T03:05:21.582Z,100525.94
2019-05-10T03:07:54.787Z,100529.59
2019-05-10T03:10:29.662Z,100526.03
2019-05-10T03:13:01.936Z,100534.39
2019-05-10T03:15:36.584Z,100527.45
2019-05-10T03:18:07.895Z,100535.84
2019-05-10T03:20:39.727Z,100535.81
2019-05-10T03:23:11.252Z,100531.91
2019-05-10T03:25:42.079Z,100530.10
2019-05-10T03:28:12.404Z,100532.59
2019-05-10T03:30:43.162Z,100528.22
2019-05-10T03:33:13.436Z,100521.22
2019-05-10T03:35:43.885Z,100524.83
2019-05-10T03:38:15.312Z,100532.28
2019-05-10T03:40:46.483Z,100534.59
2019-05-10T03:43:16.804Z,100524.61
2019-05-10T03:45:47.224Z,100529.28
2019-05-10T03:48:19.413Z,100531.10
2019-05-10T03:50:50.523Z,100525.58
2019-05-10T03:53:20.770Z,100530.82
2019-05-10T03:55:51.790Z,100528.30
2019-05-10T03:58:22.110Z,100528.48
2019-05-10T04:00:53.552Z,100527.42
2019-05-10T04:03:24.967Z,100527.89
2019-05-10T04:05:56.264Z,100529.73
2019-05-10T04:08:26.587Z,100530.88
2019-05-10T04:10:57.110Z,100531.94
2019-05-10T04:13:27.711Z,100525.46
2019-05-10T04:15:58.037Z,100527.12
2019-05-10T04:18:28.475Z,100530.28
2019-05-10T04:21:00.094Z,100522.78
2019-05-10T04:23:30.346Z,100530.03
2019-05-10T04:26:01.499Z,100526.72
2019-05-10T04:28:31.825Z,100522.84
2019-05-10T04:31:02.117Z,100529.03
2019-05-10T04:33:32.834Z,100525.81
2019-05-10T04:36:04.321Z,100525.66
2019-05-10T04:38:36.572Z,100525.67
2019-05-10T04:41:07.015Z,100528.30
2019-05-10T04:43:38.271Z,100532.61
2019-05-10T04:46:09.779Z,100539.15
2019-05-10T04:48:40.252Z,100537.48
2019-05-10T04:51:10.500Z,100522.06
2019-05-10T04:53:44.674Z,100521.32
2019-05-10T04:56:15.195Z,100525.14
2019-05-10T04:58:46.451Z,100529.16
2019-05-10T05:01:16.765Z,100528.55
2019-05-10T05:03:47.767Z,100533.10
2019-05-10T05:06:18.872Z,100527.82
2019-05-10T05:08:49.192Z,100528.50
2019-05-10T05:11:20.514Z,100533.07
2019-05-10T05:13:50.835Z,100535.60
2019-05-10T05:16:21.164Z,100537.17
2019-05-10T05:18:53.048Z,100532.73
2019-05-10T05:21:24.130Z,100533.36
2019-05-10T05:23:54.362Z,100544.39
2019-05-10T05:26:25.036Z,100544.50
2019-05-10T05:28:55.326Z,100539.67
2019-05-10T05:31:25.638Z,100538.86
2019-05-10T05:33:59.101Z,100541.08
2019-05-10T05:36:28.754Z,100543.84
2019-05-10T05:39:00.001Z,100539.53
2019-05-10T05:41:32.647Z,100547.76
2019-05-10T05:44:03.210Z,100551.20
2019-05-10T05:46:34.368Z,100547.76
2019-05-10T05:49:05.180Z,100553.36
2019-05-10T05:51:35.500Z,100553.44
2019-05-10T05:54:05.899Z,100554.17
2019-05-10T05:56:36.114Z,100557.20
2019-05-10T05:59:08.999Z,100562.03
2019-05-10T06:01:39.373Z,100554.69
2019-05-10T06:04:12.693Z,100553.44
2019-05-10T06:06:41.943Z,100559.17
2019-05-10T06:09:12.477Z,100562.87
2019-05-10T06:11:43.473Z,100556.39
2019-05-10T06:14:13.874Z,100565.22
2019-05-10T06:16:50.224Z,100565.15
2019-05-10T06:19:20.403Z,100563.89
2019-05-10T06:21:50.954Z,100569.20
2019-05-10T06:24:21.239Z,100569.98
2019-05-10T06:26:51.576Z,100572.05
2019-05-10T06:29:22.998Z,100572.50
2019-05-10T06:31:53.946Z,100563.86
2019-05-10T06:34:24.612Z,100565.08
2019-05-10T06:36:54.927Z,100565.37
2019-05-10T06:39:26.665Z,100570.31
2019-05-10T06:41:58.446Z,100566.52
2019-05-10T06:44:35.350Z,100576.34
2019-05-10T06:47:08.372Z,100571.16
2019-05-10T06:49:41.711Z,100570.89
2019-05-10T06:52:10.178Z,100570.42
2019-05-10T06:54:40.934Z,100576.97
2019-05-10T06:57:17.303Z,100577.45
2019-05-10T06:59:43.606Z,100577.14
2019-05-10T07:02:14.336Z,100579.78
2019-05-10T07:04:45.029Z,100580.08
2019-05-10T07:07:22.112Z,100571.89
2019-05-10T07:10:04.158Z,100579.78
2019-05-10T07:12:19.444Z,100581.07
2019-05-10T07:14:50.794Z,100577.66
2019-05-10T07:17:21.084Z,100585.92
2019-05-10T07:19:54.928Z,100577.72
2019-05-10T07:22:26.799Z,100575.55
2019-05-10T07:24:57.064Z,100569.97
2019-05-10T07:27:28.889Z,100572.16
2019-05-10T07:29:59.223Z,100570.04
2019-05-10T07:32:29.471Z,100563.98
2019-05-10T07:35:01.039Z,100572.70
2019-05-10T07:37:32.085Z,100569.23
2019-05-10T07:40:03.767Z,100567.05
2019-05-10T07:42:39.712Z,100567.48
2019-05-10T07:45:09.136Z,100565.77
2019-05-10T07:47:39.602Z,100568.87
2019-05-10T07:50:11.633Z,100568.44
2019-05-10T07:52:45.518Z,100568.87
2019-05-10T07:55:18.001Z,100570.62
2019-05-10T07:57:48.123Z,100559.28
2019-05-10T08:00:19.771Z,100556.23
2019-05-10T08:02:57.758Z,100559.27
2019-05-10T08:05:23.838Z,100566.23
2019-05-10T08:07:54.941Z,100564.91
2019-05-10T08:10:25.420Z,100571.90
2019-05-10T08:12:59.566Z,100565.36
2019-05-10T08:15:30.654Z,100563.60
2019-05-10T08:18:01.392Z,100566.65
2019-05-10T08:20:46.387Z,100569.70
2019-05-10T08:23:04.452Z,100573.58
2019-05-10T08:25:36.347Z,100571.02
2019-05-10T08:28:07.964Z,100577.59
2019-05-10T08:30:58.384Z,100573.66
2019-05-10T08:33:18.379Z,100569.73
2019-05-10T08:35:52.456Z,100567.13
2019-05-10T08:38:22.095Z,100569.28
2019-05-10T08:40:55.419Z,100576.29
2019-05-10T08:43:30.705Z,100570.19
2019-05-10T08:45:58.562Z,100560.14
2019-05-10T08:48:30.297Z,100565.81
2019-05-10T08:51:04.067Z,100571.50
2019-05-10T08:53:34.610Z,100567.14
2019-05-10T08:56:07.764Z,100572.80
2019-05-10T08:58:37.436Z,100571.06
2019-05-10T09:01:20.364Z,100558.36
2019-05-10T09:03:42.068Z,100566.64
2019-05-10T09:06:16.704Z,100555.75
2019-05-10T09:08:46.245Z,100558.36
2019-05-10T09:11:16.750Z,100555.31
2019-05-10T09:13:47.916Z,100552.70
2019-05-10T09:16:18.171Z,100550.52
2019-05-10T09:18:51.198Z,100546.63
2019-05-10T09:21:22.782Z,100551.41
2019-05-10T09:24:01.507Z,100555.33
2019-05-10T09:26:25.830Z,100553.14
2019-05-10T09:28:57.840Z,100563.17
2019-05-10T09:31:28.575Z,100562.33
2019-05-10T09:34:01.951Z,100553.16
2019-05-10T09:36:36.014Z,100561.02
2019-05-10T09:39:09.181Z,100554.92
2019-05-10T09:41:38.837Z,100556.63
2019-05-10T09:44:09.780Z,100557.51
2019-05-10T09:46:42.155Z,100557.08
2019-05-10T09:49:18.089Z,100558.36
2019-05-10T09:51:44.931Z,100556.16
2019-05-10T09:54:15.450Z,100550.94
2019-05-10T09:56:51.763Z,100554.39
2019-05-10T09:59:17.984Z,100552.16
2019-05-10T10:01:48.556Z,100552.48
2019-05-10T10:04:20.612Z,100550.25
2019-05-10T10:06:52.610Z,100550.08
2019-05-10T10:09:24.536Z,100547.66
2019-05-10T10:12:01.573Z,100550.47
2019-05-10T10:14:37.790Z,100544.64
2019-05-10T10:17:03.164Z,100545.81
2019-05-10T10:19:34.197Z,100545.86
2019-05-10T10:22:05.597Z,100544.14
2019-05-10T10:24:40.778Z,100548.25
2019-05-10T10:27:09.409Z,100547.45
2019-05-10T10:29:40.310Z,100546.25
2019-05-10T10:32:11.489Z,100541.83
2019-05-10T10:34:43.168Z,100541.52
2019-05-10T10:37:14.716Z,100534.88
2019-05-10T10:39:47.697Z,100533.45
2019-05-10T10:42:22.566Z,100521.62
2019-05-10T10:44:54.521Z,100518.12
2019-05-10T10:47:28.361Z,100510.48
2019-05-10T10:49:58.007Z,100512.91
2019-05-10T10:52:29.448Z,100511.86
2019-05-10T10:54:59.739Z,100510.91
2019-05-10T10:57:29.985Z,100518.02
2019-05-10T11:00:02.095Z,100519.78
2019-05-10T11:02:33.990Z,100522.11
2019-05-10T11:05:07.405Z,100521.87
2019-05-10T11:07:41.494Z,100515.06
2019-05-10T11:10:16.170Z,100500.16
2019-05-10T11:12:43.799Z,100506.06
2019-05-10T11:15:16.544Z,100514.09
2019-05-10T11:17:47.032Z,100512.47
2019-05-10T11:20:21.519Z,100517.73
2019-05-10T11:22:53.332Z,100509.50
2019-05-10T11:25:23.951Z,100496.38
2019-05-10T11:27:58.759Z,100489.80
2019-05-10T11:30:26.406Z,100491.04
2019-05-10T11:32:56.905Z,100482.23
2019-05-10T11:35:31.221Z,100482.97
2019-05-10T11:38:01.195Z,100485.45
2019-05-10T11:40:34.908Z,100469.58
2019-05-10T11:43:03.235Z,100453.72
2019-05-10T11:45:35.369Z,100449.85
2019-05-10T11:48:06.277Z,100463.42
2019-05-10T11:50:36.924Z,100463.42
2019-05-10T11:53:13.201Z,100459.06
2019-05-10T11:55:41.150Z,100464.91
2019-05-10T11:58:13.175Z,100459.77
2019-05-10T12:00:44.761Z,100460.58
2019-05-10T12:03:18.962Z,100456.84
2019-05-10T12:05:53.183Z,100446.34
2019-05-10T12:08:22.334Z,100453.36
2019-05-10T12:11:03.960Z,100447.63
2019-05-10T12:13:25.647Z,100447.49
2019-05-10T12:15:56.518Z,100448.73
2019-05-10T12:18:27.250Z,100446.16
2019-05-10T12:21:08.904Z,100437.41
2019-05-10T12:23:31.776Z,100450.19
2019-05-10T12:27:12.905Z,100458.52
2019-05-10T12:28:35.848Z,100459.55
2019-05-10T12:31:07.568Z,100463.86
2019-05-10T12:33:42.099Z,100463.99
2019-05-10T12:36:22.259Z,100458.86
2019-05-10T12:38:43.617Z,100462.42
2019-05-10T12:41:15.333Z,100461.72
2019-05-10T12:43:48.474Z,100457.75
2019-05-10T12:46:20.649Z,100473.03
2019-05-10T12:48:51.773Z,100472.22
2019-05-10T12:51:23.559Z,100476.67
2019-05-10T12:53:54.048Z,100477.07
2019-05-10T12:56:24.730Z,100464.30
2019-05-10T12:58:57.640Z,100460.83
2019-05-10T13:01:31.968Z,100462.09
2019-05-10T13:04:02.250Z,100454.17
2019-05-10T13:06:34.567Z,100458.05
2019-05-10T13:09:07.150Z,100463.80
2019-05-10T13:11:37.641Z,100465.16
2019-05-10T13:14:09.746Z,100463.66
2019-05-10T13:16:44.197Z,100487.73
2019-05-10T13:19:20.174Z,100488.99
2019-05-10T13:21:48.017Z,100491.69
2019-05-10T13:24:18.504Z,100471.59
2019-05-10T13:26:48.789Z,100460.59
2019-05-10T13:29:19.450Z,100472.42
2019-05-10T13:31:50.165Z,100461.09
2019-05-10T13:34:24.322Z,100463.72
2019-05-10T13:36:54.321Z,100463.72
2019-05-10T13:39:25.516Z,100468.94
2019-05-10T13:42:02.655Z,100472.89
2019-05-10T13:44:29.268Z,100467.98
2019-05-10T13:47:04.939Z,100464.91
2019-05-10T13:49:34.118Z,100463.19
2019-05-10T13:52:04.785Z,100468.30
2019-05-10T13:54:37.926Z,100474.81
2019-05-10T13:57:09.235Z,100474.78
2019-05-10T13:59:39.734Z,100468.73
2019-05-10T14:02:10.654Z,100473.60
2019-05-10T14:04:42.307Z,100470.92
2019-05-10T14:07:12.705Z,100464.41
2019-05-10T14:09:43.040Z,100465.37
2019-05-10T14:12:16.310Z,100450.58
2019-05-10T14:14:46.264Z,100434.44
2019-05-10T14:17:16.999Z,100425.27
2019-05-10T14:19:47.771Z,100413.47
2019-05-10T14:22:18.191Z,100421.36
2019-05-10T14:24:53.337Z,100418.73
2019-05-10T14:27:20.884Z,100411.82
2019-05-10T14:29:51.195Z,100410.52
2019-05-10T14:32:22.236Z,100406.61
2019-05-10T14:34:53.209Z,100399.22
2019-05-10T14:37:24.116Z,100405.33
2019-05-10T14:39:54.459Z,100402.31
2019-05-10T14:42:31.049Z,100397.03
2019-05-10T14:44:57.696Z,100384.88
2019-05-10T14:47:28.644Z,100376.14
2019-05-10T14:50:00.286Z,100374.88
2019-05-10T14:52:30.631Z,100377.52
2019-05-10T14:55:02.061Z,100378.83
2019-05-10T14:57:33.167Z,100374.09
2019-05-10T15:00:05.972Z,100377.58
2019-05-10T15:02:36.291Z,100365.73
2019-05-10T15:05:15.947Z,100366.59
2019-05-10T15:07:42.276Z,100352.63
2019-05-10T15:10:13.323Z,100352.20
2019-05-10T15:12:43.665Z,100347.45
2019-05-10T15:15:14.184Z,100341.41
2019-05-10T15:17:45.871Z,100349.27
2019-05-10T15:20:16.178Z,100358.87
2019-05-10T15:22:47.748Z,100352.75
2019-05-10T15:25:18.537Z,100355.80
2019-05-10T15:27:49.465Z,100354.02
2019-05-10T15:30:19.911Z,100354.45
2019-05-10T15:32:50.774Z,100348.25
2019-05-10T15:35:21.272Z,100329.03
2019-05-10T15:37:52.006Z,100334.71
2019-05-10T15:40:22.447Z,100330.72
2019-05-10T15:42:53.353Z,100331.12
2019-05-10T15:45:24.660Z,100332.02
2019-05-10T15:47:57.572Z,100324.70
2019-05-10T15:50:32.419Z,100323.05
2019-05-10T15:53:01.728Z,100320.41
2019-05-10T15:55:32.920Z,100321.23
2019-05-10T15:58:04.958Z,100326.97
2019-05-10T16:00:39.299Z,100319.14
2019-05-10T16:03:07.648Z,100318.27
2019-05-10T16:05:43.565Z,100313.41
2019-05-10T16:08:13.772Z,100307.32
2019-05-10T16:10:45.075Z,100303.41
2019-05-10T16:13:23.650Z,100305.48
2019-05-10T16:15:51.568Z,100315.55
2019-05-10T16:18:20.361Z,100313.83
2019-05-10T16:20:51.128Z,100310.31
2019-05-10T16:23:21.369Z,100312.52
2019-05-10T16:25:52.538Z,100318.22
2019-05-10T16:28:23.079Z,100312.89
2019-05-10T16:30:54.343Z,100322.53
2019-05-10T16:33:26.802Z,100312.02
2019-05-10T16:35:57.052Z,100315.06
2019-05-10T16:38:27.486Z,100308.13
2019-05-10T16:41:00.677Z,100308.67
2019-05-10T16:43:31.649Z,100313.52
2019-05-10T16:46:02.893Z,100311.66
2019-05-10T16:48:33.647Z,100312.03
2019-05-10T16:51:09.732Z,100305.03
2019-05-10T16:53:37.834Z,100305.03
2019-05-10T16:56:13.358Z,100298.03
2019-05-10T16:58:42.193Z,100296.31
2019-05-10T17:01:13.701Z,100286.98
2019-05-10T17:03:44.525Z,100282.66
2019-05-10T17:06:14.773Z,100284.89
2019-05-10T17:08:45.932Z,100293.17
2019-05-10T17:11:16.667Z,100284.97
2019-05-10T17:13:47.016Z,100293.73
2019-05-10T17:16:18.879Z,100286.30
2019-05-10T17:18:55.262Z,100287.92
2019-05-10T17:21:22.127Z,100285.33
2019-05-10T17:23:53.297Z,100287.58
2019-05-10T17:26:23.788Z,100287.58
2019-05-10T17:28:54.356Z,100294.09
2019-05-10T17:31:25.387Z,100298.48
2019-05-10T17:33:57.355Z,100294.97
2019-05-10T17:36:27.665Z,100290.20
2019-05-10T17:38:58.718Z,100290.10
2019-05-10T17:41:29.115Z,100287.51
2019-05-10T17:44:00.002Z,100291.07
2019-05-10T17:46:31.427Z,100294.05
2019-05-10T17:49:02.570Z,100297.87
2019-05-10T17:51:33.603Z,100299.23
2019-05-10T17:54:04.570Z,100295.30
2019-05-10T17:56:38.731Z,100294.48
2019-05-10T17:59:11.894Z,100301.96
2019-05-10T18:01:40.837Z,100298.47
2019-05-10T18:04:11.781Z,100294.03
2019-05-10T18:06:42.131Z,100289.27
2019-05-10T18:09:12.579Z,100292.73
2019-05-10T18:11:44.967Z,100292.78
2019-05-10T18:14:18.009Z,100299.83
2019-05-10T18:16:49.848Z,100301.92
2019-05-10T18:19:24.699Z,100301.41
2019-05-10T18:22:00.276Z,100294.98
2019-05-10T18:24:30.291Z,100295.08
2019-05-10T18:27:00.693Z,100296.75
2019-05-10T18:29:31.286Z,100300.55
2019-05-10T18:32:01.708Z,100292.70
2019-05-10T18:34:35.398Z,100288.44
2019-05-10T18:37:04.996Z,100290.05
2019-05-10T18:39:35.550Z,100287.92
2019-05-10T18:42:06.170Z,100285.33
2019-05-10T18:44:37.668Z,100289.35
2019-05-10T18:47:08.956Z,100298.53
2019-05-10T18:49:39.616Z,100298.51
2019-05-10T18:52:10.284Z,100301.96
2019-05-10T18:54:41.784Z,100305.03
2019-05-10T18:57:18.781Z,100310.27
2019-05-10T18:59:47.760Z,100308.95
2019-05-10T19:02:19.680Z,100323.91
2019-05-10T19:04:52.701Z,100316.88
2019-05-10T19:07:23.350Z,100321.73
2019-05-10T19:09:53.952Z,100317.73
2019-05-10T19:12:24.791Z,100328.70
2019-05-10T19:14:55.709Z,100336.16
2019-05-10T19:17:26.006Z,100332.70
2019-05-10T19:19:57.199Z,100340.88
2019-05-10T19:22:27.865Z,100336.45
2019-05-10T19:25:10.713Z,100340.42
2019-05-10T19:27:38.759Z,100350.45
2019-05-10T19:30:10.358Z,100344.91
2019-05-10T19:32:41.041Z,100347.12
2019-05-10T19:35:12.713Z,100353.27
2019-05-10T19:37:42.978Z,100354.57
2019-05-10T19:40:14.312Z,100360.20
2019-05-10T19:42:45.017Z,100363.77
2019-05-10T19:45:19.206Z,100363.75
2019-05-10T19:47:49.998Z,100369.02
2019-05-10T19:50:24.232Z,100374.24
2019-05-10T19:52:53.048Z,100379.95
2019-05-10T19:55:24.644Z,100383.41
2019-05-10T19:57:56.595Z,100388.13
2019-05-10T20:00:30.995Z,100393.80
2019-05-10T20:03:01.276Z,100400.35
2019-05-10T20:05:31.883Z,100401.30
2019-05-10T20:08:02.195Z,100408.74
2019-05-10T20:10:32.579Z,100411.87
2019-05-10T20:13:03.183Z,100416.20
2019-05-10T20:15:34.347Z,100414.05
2019-05-10T20:18:04.843Z,100420.16
2019-05-10T20:20:35.916Z,100424.52
2019-05-10T20:23:06.282Z,100427.98
2019-05-10T20:25:37.649Z,100441.50
2019-05-10T20:28:07.971Z,100442.81
2019-05-10T20:30:38.698Z,100448.94
2019-05-10T20:33:09.415Z,100454.16
2019-05-10T20:35:41.071Z,100456.33
2019-05-10T20:38:12.129Z,100455.91
2019-05-10T20:40:43.258Z,100454.15
2019-05-10T20:43:13.497Z,100444.11
2019-05-10T20:45:44.328Z,100444.08
2019-05-10T20:48:15.825Z,100457.19
2019-05-10T20:50:48.024Z,100453.27
2019-05-10T20:53:18.766Z,100449.34
2019-05-10T20:55:49.125Z,100452.41
2019-05-10T20:58:19.875Z,100451.55
2019-05-10T21:00:50.442Z,100451.13
2019-05-10T21:03:20.765Z,100458.94
2019-05-10T21:05:53.808Z,100481.63
2019-05-10T21:08:24.174Z,100495.61
2019-05-10T21:10:57.671Z,100492.98
2019-05-10T21:13:28.022Z,100492.56
2019-05-10T21:15:58.950Z,100494.72
2019-05-10T21:18:29.641Z,100500.38
2019-05-10T21:21:01.232Z,100499.94
2019-05-10T21:23:31.742Z,100499.05
2019-05-10T21:26:02.273Z,100500.38
2019-05-10T21:28:33.614Z,100504.30
2019-05-10T21:31:06.108Z,100495.15
2019-05-10T21:33:36.419Z,100500.39
2019-05-10T21:36:09.059Z,100498.64
2019-05-10T21:38:41.624Z,100499.08
2019-05-10T21:41:11.473Z,100501.27
2019-05-10T21:43:42.067Z,100500.82
2019-05-10T21:46:12.639Z,100499.52
2019-05-10T21:48:43.738Z,100495.60
2019-05-10T21:51:16.557Z,100507.39
2019-05-10T21:53:46.862Z,100510.44
2019-05-10T21:56:19.095Z,100513.90
2019-05-10T21:58:49.477Z,100522.63
2019-05-10T22:01:20.646Z,100525.27
2019-05-10T22:03:50.936Z,100528.75
2019-05-10T22:06:21.775Z,100527.84
2019-05-10T22:08:52.013Z,100530.02
2019-05-10T22:11:23.232Z,100529.58
2019-05-10T22:13:53.546Z,100530.45
2019-05-10T22:16:23.979Z,100525.66
2019-05-10T22:19:01.826Z,100530.01
2019-05-10T22:21:35.277Z,100533.96
2019-05-10T22:24:05.614Z,100535.27
2019-05-10T22:26:37.365Z,100541.39
2019-05-10T22:29:07.677Z,100541.38
2019-05-10T22:31:40.363Z,100545.32
2019-05-10T22:34:10.801Z,100549.23
2019-05-10T22:36:41.616Z,100562.31
2019-05-10T22:39:12.144Z,100552.30
2019-05-10T22:41:42.980Z,100557.96
2019-05-10T22:44:13.214Z,100569.31
2019-05-10T22:46:43.622Z,100567.56
2019-05-10T22:49:16.811Z,100574.55
2019-05-10T22:51:47.501Z,100577.59
2019-05-10T22:54:18.605Z,100581.52
2019-05-10T22:56:49.417Z,100579.28
2019-05-10T22:59:20.148Z,100586.27
2019-05-10T23:01:51.511Z,100586.27
2019-05-10T23:04:23.047Z,100590.63
2019-05-10T23:06:53.819Z,100590.63
2019-05-10T23:09:25.280Z,100594.11
2019-05-10T23:11:56.783Z,100601.95
2019-05-10T23:14:28.143Z,100605.88
2019-05-10T23:16:58.477Z,100603.70
2019-05-10T23:19:28.873Z,100609.80
2019-05-10T23:22:00.943Z,100612.86
2019-05-10T23:24:40.532Z,100624.19
2019-05-10T23:27:10.902Z,100627.23
2019-05-10T23:29:41.426Z,100620.27
2019-05-10T23:32:11.856Z,100633.78
2019-05-10T23:34:42.291Z,100635.95
2019-05-10T23:37:13.043Z,100638.13
2019-05-10T23:39:43.801Z,100642.87
2019-05-10T23:42:14.089Z,100649.42
2019-05-10T23:44:47.669Z,100651.16
2019-05-10T23:47:17.916Z,100651.59
2019-05-10T23:49:49.641Z,100652.47
2019-05-10T23:52:20.663Z,100661.62
2019-05-10T23:54:50.997Z,100668.16
2019-05-10T23:57:21.296Z,100673.37
2019-05-10T23:59:51.754Z,100682.97
